sensor_id;sensor_type;location;lat;lon;timestamp;temperature;humidity
14473;DHT22;7322;50.872;4.386;2023-07-13T00:01:50;26.90;98.10
14473;DHT22;7322;50.872;4.386;2023-07-13T00:04:17;26.90;98.30
14473;DHT22;7322;50.872;4.386;2023-07-13T00:06:46;26.90;98.30
14473;DHT22;7322;50.872;4.386;2023-07-13T00:09:14;26.90;98.30
14473;DHT22;7322;50.872;4.386;2023-07-13T00:11:42;26.90;98.40
14473;DHT22;7322;50.872;4.386;2023-07-13T00:14:09;26.90;98.40
14473;DHT22;7322;50.872;4.386;2023-07-13T00:16:39;26.90;98.40
14473;DHT22;7322;50.872;4.386;2023-07-13T00:19:09;26.90;98.40
14473;DHT22;7322;50.872;4.386;2023-07-13T00:21:37;26.90;98.50
14473;DHT22;7322;50.872;4.386;2023-07-13T00:24:04;26.90;98.50
14473;DHT22;7322;50.872;4.386;2023-07-13T00:26:32;26.90;98.60
14473;DHT22;7322;50.872;4.386;2023-07-13T00:28:59;26.90;98.60
14473;DHT22;7322;50.872;4.386;2023-07-13T00:31:26;26.90;98.60
14473;DHT22;7322;50.872;4.386;2023-07-13T00:33:55;26.90;98.70
14473;DHT22;7322;50.872;4.386;2023-07-13T00:36:22;26.90;98.70
14473;DHT22;7322;50.872;4.386;2023-07-13T00:38:49;26.80;98.60
14473;DHT22;7322;50.872;4.386;2023-07-13T00:41:16;26.80;98.70
14473;DHT22;7322;50.872;4.386;2023-07-13T00:43:43;26.90;98.80
14473;DHT22;7322;50.872;4.386;2023-07-13T00:46:23;26.80;98.80
14473;DHT22;7322;50.872;4.386;2023-07-13T00:48:51;26.90;98.80
14473;DHT22;7322;50.872;4.386;2023-07-13T00:51:26;26.90;98.90
14473;DHT22;7322;50.872;4.386;2023-07-13T00:53:57;26.90;98.90
14473;DHT22;7322;50.872;4.386;2023-07-13T00:56:25;26.80;98.90
14473;DHT22;7322;50.872;4.386;2023-07-13T00:58:54;26.90;99.00
14473;DHT22;7322;50.872;4.386;2023-07-13T01:01:21;26.80;99.00
14473;DHT22;7322;50.872;4.386;2023-07-13T01:03:48;26.80;99.00
14473;DHT22;7322;50.872;4.386;2023-07-13T01:06:16;26.80;99.00
14473;DHT22;7322;50.872;4.386;2023-07-13T01:08:45;26.80;99.00
14473;DHT22;7322;50.872;4.386;2023-07-13T01:11:18;26.80;99.00
14473;DHT22;7322;50.872;4.386;2023-07-13T01:13:45;26.90;99.10
14473;DHT22;7322;50.872;4.386;2023-07-13T01:16:15;26.90;99.10
14473;DHT22;7322;50.872;4.386;2023-07-13T01:18:44;26.90;99.20
14473;DHT22;7322;50.872;4.386;2023-07-13T01:21:14;26.90;99.20
14473;DHT22;7322;50.872;4.386;2023-07-13T01:23:41;26.90;99.10
14473;DHT22;7322;50.872;4.386;2023-07-13T01:26:11;26.90;99.20
14473;DHT22;7322;50.872;4.386;2023-07-13T01:28:38;26.90;99.20
14473;DHT22;7322;50.872;4.386;2023-07-13T01:31:05;26.90;99.20
14473;DHT22;7322;50.872;4.386;2023-07-13T01:33:34;26.80;99.20
14473;DHT22;7322;50.872;4.386;2023-07-13T01:36:01;26.80;99.30
14473;DHT22;7322;50.872;4.386;2023-07-13T01:38:29;26.80;99.30
14473;DHT22;7322;50.872;4.386;2023-07-13T01:40:56;26.80;99.30
14473;DHT22;7322;50.872;4.386;2023-07-13T01:43:23;26.80;99.60
14473;DHT22;7322;50.872;4.386;2023-07-13T01:45:50;26.80;99.30
14473;DHT22;7322;50.872;4.386;2023-07-13T01:48:17;26.80;99.30
14473;DHT22;7322;50.872;4.386;2023-07-13T01:50:47;26.80;99.30
14473;DHT22;7322;50.872;4.386;2023-07-13T01:53:14;26.80;99.30
14473;DHT22;7322;50.872;4.386;2023-07-13T01:55:42;26.80;99.40
14473;DHT22;7322;50.872;4.386;2023-07-13T01:58:09;26.80;99.40
14473;DHT22;7322;50.872;4.386;2023-07-13T02:00:36;26.80;99.40
14473;DHT22;7322;50.872;4.386;2023-07-13T02:03:04;26.80;99.40
14473;DHT22;7322;50.872;4.386;2023-07-13T02:05:30;26.80;99.40
14473;DHT22;7322;50.872;4.386;2023-07-13T02:07:57;26.80;99.40
14473;DHT22;7322;50.872;4.386;2023-07-13T02:10:25;26.80;99.40
14473;DHT22;7322;50.872;4.386;2023-07-13T02:12:53;26.80;99.40
14473;DHT22;7322;50.872;4.386;2023-07-13T02:15:20;26.80;99.40
14473;DHT22;7322;50.872;4.386;2023-07-13T02:17:47;26.80;99.50
14473;DHT22;7322;50.872;4.386;2023-07-13T02:20:14;26.80;99.50
14473;DHT22;7322;50.872;4.386;2023-07-13T02:22:41;26.80;99.50
14473;DHT22;7322;50.872;4.386;2023-07-13T02:25:08;26.80;99.50
14473;DHT22;7322;50.872;4.386;2023-07-13T02:27:35;26.80;99.50
14473;DHT22;7322;50.872;4.386;2023-07-13T02:30:05;26.80;99.60
14473;DHT22;7322;50.872;4.386;2023-07-13T02:32:33;26.80;99.60
14473;DHT22;7322;50.872;4.386;2023-07-13T02:35:01;26.80;99.70
14473;DHT22;7322;50.872;4.386;2023-07-13T02:37:28;26.80;99.70
14473;DHT22;7322;50.872;4.386;2023-07-13T02:39:56;26.80;99.70
14473;DHT22;7322;50.872;4.386;2023-07-13T02:42:23;26.80;99.70
14473;DHT22;7322;50.872;4.386;2023-07-13T02:44:50;26.80;99.70
14473;DHT22;7322;50.872;4.386;2023-07-13T02:47:19;26.70;99.70
14473;DHT22;7322;50.872;4.386;2023-07-13T02:49:46;26.80;99.80
14473;DHT22;7322;50.872;4.386;2023-07-13T02:52:12;26.70;99.70
14473;DHT22;7322;50.872;4.386;2023-07-13T02:54:39;26.70;99.80
14473;DHT22;7322;50.872;4.386;2023-07-13T02:57:06;26.70;99.80
14473;DHT22;7322;50.872;4.386;2023-07-13T02:59:33;26.70;99.80
14473;DHT22;7322;50.872;4.386;2023-07-13T03:02:01;26.70;99.80
14473;DHT22;7322;50.872;4.386;2023-07-13T03:04:29;26.70;99.90
14473;DHT22;7322;50.872;4.386;2023-07-13T03:06:56;26.70;99.90
14473;DHT22;7322;50.872;4.386;2023-07-13T03:09:24;26.70;99.90
14473;DHT22;7322;50.872;4.386;2023-07-13T03:11:52;26.70;99.90
14473;DHT22;7322;50.872;4.386;2023-07-13T03:14:21;26.70;99.90
14473;DHT22;7322;50.872;4.386;2023-07-13T03:16:49;26.70;99.90
14473;DHT22;7322;50.872;4.386;2023-07-13T03:19:17;26.70;99.90
14473;DHT22;7322;50.872;4.386;2023-07-13T03:21:46;26.60;99.90
14473;DHT22;7322;50.872;4.386;2023-07-13T03:24:14;26.70;99.90
14473;DHT22;7322;50.872;4.386;2023-07-13T03:26:41;26.70;99.90
14473;DHT22;7322;50.872;4.386;2023-07-13T03:29:08;26.60;99.90
14473;DHT22;7322;50.872;4.386;2023-07-13T03:31:36;26.70;99.90
14473;DHT22;7322;50.872;4.386;2023-07-13T03:34:03;26.70;99.90
14473;DHT22;7322;50.872;4.386;2023-07-13T03:36:31;26.60;99.90
14473;DHT22;7322;50.872;4.386;2023-07-13T03:39:02;26.60;99.90
14473;DHT22;7322;50.872;4.386;2023-07-13T03:41:29;26.70;99.90
14473;DHT22;7322;50.872;4.386;2023-07-13T03:43:57;26.70;99.90
14473;DHT22;7322;50.872;4.386;2023-07-13T03:46:24;26.70;99.90
14473;DHT22;7322;50.872;4.386;2023-07-13T03:48:51;26.70;99.90
14473;DHT22;7322;50.872;4.386;2023-07-13T03:51:19;26.70;99.90
14473;DHT22;7322;50.872;4.386;2023-07-13T03:53:47;26.70;99.90
14473;DHT22;7322;50.872;4.386;2023-07-13T03:56:17;26.60;99.90
14473;DHT22;7322;50.872;4.386;2023-07-13T03:58:46;26.60;99.90
14473;DHT22;7322;50.872;4.386;2023-07-13T04:01:14;26.60;99.90
14473;DHT22;7322;50.872;4.386;2023-07-13T04:03:42;26.60;99.90
14473;DHT22;7322;50.872;4.386;2023-07-13T04:06:14;26.60;99.90
14473;DHT22;7322;50.872;4.386;2023-07-13T04:08:48;26.60;99.90
14473;DHT22;7322;50.872;4.386;2023-07-13T04:11:18;26.60;99.90
14473;DHT22;7322;50.872;4.386;2023-07-13T04:13:45;26.60;99.90
14473;DHT22;7322;50.872;4.386;2023-07-13T04:16:13;26.60;99.90
14473;DHT22;7322;50.872;4.386;2023-07-13T04:18:40;26.60;99.90
14473;DHT22;7322;50.872;4.386;2023-07-13T04:21:08;26.60;99.90
14473;DHT22;7322;50.872;4.386;2023-07-13T04:23:36;26.60;99.90
14473;DHT22;7322;50.872;4.386;2023-07-13T04:26:03;26.60;99.90
14473;DHT22;7322;50.872;4.386;2023-07-13T04:28:31;26.60;99.90
14473;DHT22;7322;50.872;4.386;2023-07-13T04:30:58;26.60;99.90
14473;DHT22;7322;50.872;4.386;2023-07-13T04:33:26;26.60;99.90
14473;DHT22;7322;50.872;4.386;2023-07-13T04:35:54;26.60;99.90
14473;DHT22;7322;50.872;4.386;2023-07-13T04:38:23;26.60;99.90
14473;DHT22;7322;50.872;4.386;2023-07-13T04:40:53;26.60;99.90
14473;DHT22;7322;50.872;4.386;2023-07-13T04:43:20;26.60;99.90
14473;DHT22;7322;50.872;4.386;2023-07-13T04:45:50;26.60;99.90
14473;DHT22;7322;50.872;4.386;2023-07-13T04:48:17;26.60;99.90
14473;DHT22;7322;50.872;4.386;2023-07-13T04:50:44;26.60;99.90
14473;DHT22;7322;50.872;4.386;2023-07-13T04:53:12;26.60;99.90
14473;DHT22;7322;50.872;4.386;2023-07-13T04:55:39;26.60;99.90
14473;DHT22;7322;50.872;4.386;2023-07-13T04:58:06;26.60;99.90
14473;DHT22;7322;50.872;4.386;2023-07-13T05:00:33;26.60;99.90
14473;DHT22;7322;50.872;4.386;2023-07-13T05:03:03;26.50;99.90
14473;DHT22;7322;50.872;4.386;2023-07-13T05:05:30;26.60;99.90
14473;DHT22;7322;50.872;4.386;2023-07-13T05:07:57;26.60;99.90
14473;DHT22;7322;50.872;4.386;2023-07-13T05:10:24;26.50;99.90
14473;DHT22;7322;50.872;4.386;2023-07-13T05:12:51;26.50;99.90
14473;DHT22;7322;50.872;4.386;2023-07-13T05:15:20;26.50;99.90
14473;DHT22;7322;50.872;4.386;2023-07-13T05:17:48;26.60;99.90
14473;DHT22;7322;50.872;4.386;2023-07-13T05:20:18;26.60;99.90
14473;DHT22;7322;50.872;4.386;2023-07-13T05:22:45;26.60;99.90
14473;DHT22;7322;50.872;4.386;2023-07-13T05:25:13;26.50;99.90
14473;DHT22;7322;50.872;4.386;2023-07-13T05:27:40;26.50;99.90
14473;DHT22;7322;50.872;4.386;2023-07-13T05:30:09;26.50;99.90
14473;DHT22;7322;50.872;4.386;2023-07-13T05:32:42;26.50;99.90
14473;DHT22;7322;50.872;4.386;2023-07-13T05:35:11;26.60;99.90
14473;DHT22;7322;50.872;4.386;2023-07-13T05:37:45;26.60;99.90
14473;DHT22;7322;50.872;4.386;2023-07-13T05:40:13;26.60;99.90
14473;DHT22;7322;50.872;4.386;2023-07-13T05:42:40;26.60;99.90
14473;DHT22;7322;50.872;4.386;2023-07-13T05:45:08;26.50;99.90
14473;DHT22;7322;50.872;4.386;2023-07-13T05:47:35;26.50;99.90
14473;DHT22;7322;50.872;4.386;2023-07-13T05:50:02;26.40;99.90
14473;DHT22;7322;50.872;4.386;2023-07-13T05:52:33;26.40;99.90
14473;DHT22;7322;50.872;4.386;2023-07-13T05:55:01;26.40;99.90
14473;DHT22;7322;50.872;4.386;2023-07-13T05:57:29;26.10;99.90
14473;DHT22;7322;50.872;4.386;2023-07-13T05:59:56;25.90;99.90
14473;DHT22;7322;50.872;4.386;2023-07-13T06:02:23;25.70;99.90
14473;DHT22;7322;50.872;4.386;2023-07-13T06:04:51;25.30;99.90
14473;DHT22;7322;50.872;4.386;2023-07-13T06:07:18;25.00;99.90
14473;DHT22;7322;50.872;4.386;2023-07-13T06:09:51;24.90;99.90
14473;DHT22;7322;50.872;4.386;2023-07-13T06:12:21;24.70;99.90
14473;DHT22;7322;50.872;4.386;2023-07-13T06:14:52;24.60;99.90
14473;DHT22;7322;50.872;4.386;2023-07-13T06:17:20;24.40;99.90
14473;DHT22;7322;50.872;4.386;2023-07-13T06:19:47;24.20;99.90
14473;DHT22;7322;50.872;4.386;2023-07-13T06:22:14;24.30;99.90
14473;DHT22;7322;50.872;4.386;2023-07-13T06:24:41;24.00;99.90
14473;DHT22;7322;50.872;4.386;2023-07-13T06:27:15;23.80;99.90
14473;DHT22;7322;50.872;4.386;2023-07-13T06:29:47;23.80;99.90
14473;DHT22;7322;50.872;4.386;2023-07-13T06:32:14;23.90;99.90
14473;DHT22;7322;50.872;4.386;2023-07-13T06:34:54;24.00;99.90
14473;DHT22;7322;50.872;4.386;2023-07-13T06:37:21;24.20;99.90
14473;DHT22;7322;50.872;4.386;2023-07-13T06:39:48;24.30;99.90
14473;DHT22;7322;50.872;4.386;2023-07-13T06:42:25;24.40;99.90
14473;DHT22;7322;50.872;4.386;2023-07-13T06:44:54;24.50;99.90
14473;DHT22;7322;50.872;4.386;2023-07-13T06:47:26;24.50;99.90
14473;DHT22;7322;50.872;4.386;2023-07-13T06:50:00;24.60;99.90
14473;DHT22;7322;50.872;4.386;2023-07-13T06:52:30;24.70;99.90
14473;DHT22;7322;50.872;4.386;2023-07-13T06:54:58;24.70;99.90
14473;DHT22;7322;50.872;4.386;2023-07-13T06:57:39;24.70;99.90
14473;DHT22;7322;50.872;4.386;2023-07-13T07:00:26;24.80;99.90
14473;DHT22;7322;50.872;4.386;2023-07-13T07:02:53;24.70;99.90
14473;DHT22;7322;50.872;4.386;2023-07-13T07:08:15;24.90;99.90
14473;DHT22;7322;50.872;4.386;2023-07-13T07:10:44;25.00;99.90
14473;DHT22;7322;50.872;4.386;2023-07-13T07:13:17;25.00;99.90
14473;DHT22;7322;50.872;4.386;2023-07-13T07:15:46;25.00;99.90
14473;DHT22;7322;50.872;4.386;2023-07-13T07:18:15;25.00;99.90
14473;DHT22;7322;50.872;4.386;2023-07-13T07:20:56;25.10;99.90
14473;DHT22;7322;50.872;4.386;2023-07-13T07:23:29;25.10;99.90
14473;DHT22;7322;50.872;4.386;2023-07-13T07:26:00;25.20;99.90
14473;DHT22;7322;50.872;4.386;2023-07-13T07:28:29;25.20;99.90
14473;DHT22;7322;50.872;4.386;2023-07-13T07:30:59;25.10;99.90
14473;DHT22;7322;50.872;4.386;2023-07-13T07:33:27;25.10;99.90
14473;DHT22;7322;50.872;4.386;2023-07-13T07:35:54;25.20;99.90
14473;DHT22;7322;50.872;4.386;2023-07-13T07:38:28;25.20;99.90
14473;DHT22;7322;50.872;4.386;2023-07-13T07:40:55;25.30;99.90
14473;DHT22;7322;50.872;4.386;2023-07-13T07:43:22;25.30;99.90
14473;DHT22;7322;50.872;4.386;2023-07-13T07:45:49;25.30;99.90
14473;DHT22;7322;50.872;4.386;2023-07-13T07:48:19;25.40;99.90
14473;DHT22;7322;50.872;4.386;2023-07-13T07:50:46;25.40;99.90
14473;DHT22;7322;50.872;4.386;2023-07-13T07:53:13;25.50;99.90
14473;DHT22;7322;50.872;4.386;2023-07-13T07:55:40;25.60;99.90
14473;DHT22;7322;50.872;4.386;2023-07-13T07:58:07;25.60;99.90
14473;DHT22;7322;50.872;4.386;2023-07-13T08:00:35;25.50;99.90
14473;DHT22;7322;50.872;4.386;2023-07-13T08:03:03;25.50;99.90
14473;DHT22;7322;50.872;4.386;2023-07-13T08:05:35;25.50;99.90
14473;DHT22;7322;50.872;4.386;2023-07-13T08:08:03;25.60;99.90
14473;DHT22;7322;50.872;4.386;2023-07-13T08:10:30;25.60;99.90
14473;DHT22;7322;50.872;4.386;2023-07-13T08:12:57;25.60;99.90
14473;DHT22;7322;50.872;4.386;2023-07-13T08:15:24;25.60;99.90
14473;DHT22;7322;50.872;4.386;2023-07-13T08:17:52;25.60;99.90
14473;DHT22;7322;50.872;4.386;2023-07-13T08:20:21;25.60;99.90
14473;DHT22;7322;50.872;4.386;2023-07-13T08:22:50;25.70;99.90
14473;DHT22;7322;50.872;4.386;2023-07-13T08:25:18;25.70;99.90
14473;DHT22;7322;50.872;4.386;2023-07-13T08:27:46;25.70;99.90
14473;DHT22;7322;50.872;4.386;2023-07-13T08:30:13;25.60;99.90
14473;DHT22;7322;50.872;4.386;2023-07-13T08:32:40;25.70;99.90
14473;DHT22;7322;50.872;4.386;2023-07-13T08:35:08;25.60;99.90
14473;DHT22;7322;50.872;4.386;2023-07-13T08:37:43;25.70;99.90
14473;DHT22;7322;50.872;4.386;2023-07-13T08:40:14;25.70;99.90
14473;DHT22;7322;50.872;4.386;2023-07-13T08:42:44;25.70;99.90
14473;DHT22;7322;50.872;4.386;2023-07-13T08:45:18;25.80;99.90
14473;DHT22;7322;50.872;4.386;2023-07-13T08:47:51;25.90;99.90
14473;DHT22;7322;50.872;4.386;2023-07-13T08:50:25;25.90;99.90
14473;DHT22;7322;50.872;4.386;2023-07-13T08:52:55;25.90;99.90
14473;DHT22;7322;50.872;4.386;2023-07-13T08:55:28;25.90;99.90
14473;DHT22;7322;50.872;4.386;2023-07-13T08:58:02;25.90;99.90
14473;DHT22;7322;50.872;4.386;2023-07-13T09:00:37;25.90;99.90
14473;DHT22;7322;50.872;4.386;2023-07-13T09:03:16;25.80;99.90
14473;DHT22;7322;50.872;4.386;2023-07-13T09:05:54;25.80;99.90
14473;DHT22;7322;50.872;4.386;2023-07-13T09:08:43;25.80;99.90
14473;DHT22;7322;50.872;4.386;2023-07-13T09:11:28;25.80;99.90
14473;DHT22;7322;50.872;4.386;2023-07-13T09:14:03;25.80;99.90
14473;DHT22;7322;50.872;4.386;2023-07-13T09:16:33;25.80;99.90
14473;DHT22;7322;50.872;4.386;2023-07-13T09:19:05;25.90;99.90
14473;DHT22;7322;50.872;4.386;2023-07-13T09:21:36;26.00;99.90
14473;DHT22;7322;50.872;4.386;2023-07-13T09:24:28;26.00;99.90
14473;DHT22;7322;50.872;4.386;2023-07-13T09:26:57;26.10;99.90
14473;DHT22;7322;50.872;4.386;2023-07-13T09:29:28;26.10;99.90
14473;DHT22;7322;50.872;4.386;2023-07-13T09:31:57;26.20;99.90
14473;DHT22;7322;50.872;4.386;2023-07-13T09:34:25;26.20;99.90
14473;DHT22;7322;50.872;4.386;2023-07-13T09:36:52;26.10;99.90
14473;DHT22;7322;50.872;4.386;2023-07-13T09:39:33;26.10;99.90
14473;DHT22;7322;50.872;4.386;2023-07-13T09:42:15;26.20;99.90
14473;DHT22;7322;50.872;4.386;2023-07-13T09:44:52;26.20;99.90
14473;DHT22;7322;50.872;4.386;2023-07-13T09:47:23;26.20;99.90
14473;DHT22;7322;50.872;4.386;2023-07-13T09:49:56;26.20;99.90
14473;DHT22;7322;50.872;4.386;2023-07-13T09:52:24;26.30;99.90
14473;DHT22;7322;50.872;4.386;2023-07-13T09:54:53;26.30;99.90
14473;DHT22;7322;50.872;4.386;2023-07-13T09:57:32;26.20;99.90
14473;DHT22;7322;50.872;4.386;2023-07-13T09:59:59;26.30;99.90
14473;DHT22;7322;50.872;4.386;2023-07-13T10:02:30;26.30;99.90
14473;DHT22;7322;50.872;4.386;2023-07-13T10:05:01;26.40;99.90
14473;DHT22;7322;50.872;4.386;2023-07-13T10:07:29;26.40;99.90
14473;DHT22;7322;50.872;4.386;2023-07-13T10:09:59;26.40;99.90
14473;DHT22;7322;50.872;4.386;2023-07-13T10:12:29;26.30;99.90
14473;DHT22;7322;50.872;4.386;2023-07-13T10:15:00;26.30;99.90
14473;DHT22;7322;50.872;4.386;2023-07-13T10:17:29;26.40;99.90
14473;DHT22;7322;50.872;4.386;2023-07-13T10:19:59;26.40;99.90
14473;DHT22;7322;50.872;4.386;2023-07-13T10:22:37;26.40;99.90
14473;DHT22;7322;50.872;4.386;2023-07-13T10:25:18;26.50;99.90
14473;DHT22;7322;50.872;4.386;2023-07-13T10:27:45;26.50;99.90
14473;DHT22;7322;50.872;4.386;2023-07-13T10:30:18;26.40;99.90
14473;DHT22;7322;50.872;4.386;2023-07-13T10:32:46;26.50;99.90
14473;DHT22;7322;50.872;4.386;2023-07-13T10:35:16;26.40;99.90
14473;DHT22;7322;50.872;4.386;2023-07-13T10:37:47;26.40;99.90
14473;DHT22;7322;50.872;4.386;2023-07-13T10:40:19;26.40;99.90
14473;DHT22;7322;50.872;4.386;2023-07-13T10:42:50;26.40;99.90
14473;DHT22;7322;50.872;4.386;2023-07-13T10:45:22;26.40;99.90
14473;DHT22;7322;50.872;4.386;2023-07-13T10:47:51;26.30;99.90
14473;DHT22;7322;50.872;4.386;2023-07-13T10:50:23;26.30;99.90
14473;DHT22;7322;50.872;4.386;2023-07-13T10:52:52;26.20;99.90
14473;DHT22;7322;50.872;4.386;2023-07-13T10:55:37;26.20;99.90
14473;DHT22;7322;50.872;4.386;2023-07-13T10:58:15;26.20;99.90
14473;DHT22;7322;50.872;4.386;2023-07-13T11:03:55;26.20;99.90
14473;DHT22;7322;50.872;4.386;2023-07-13T11:06:33;26.20;99.90
14473;DHT22;7322;50.872;4.386;2023-07-13T11:09:24;26.30;99.90
14473;DHT22;7322;50.872;4.386;2023-07-13T11:11:58;26.30;99.90
14473;DHT22;7322;50.872;4.386;2023-07-13T11:14:31;26.30;99.90
14473;DHT22;7322;50.872;4.386;2023-07-13T11:17:24;26.40;99.90
14473;DHT22;7322;50.872;4.386;2023-07-13T11:19:54;26.40;99.90
14473;DHT22;7322;50.872;4.386;2023-07-13T11:22:43;26.40;99.90
14473;DHT22;7322;50.872;4.386;2023-07-13T11:25:28;26.50;99.90
14473;DHT22;7322;50.872;4.386;2023-07-13T11:28:13;26.60;99.90
14473;DHT22;7322;50.872;4.386;2023-07-13T11:30:42;26.60;99.90
14473;DHT22;7322;50.872;4.386;2023-07-13T11:33:21;26.60;99.90
14473;DHT22;7322;50.872;4.386;2023-07-13T11:35:59;26.60;99.90
14473;DHT22;7322;50.872;4.386;2023-07-13T11:38:38;26.60;99.90
14473;DHT22;7322;50.872;4.386;2023-07-13T11:41:15;26.60;99.90
14473;DHT22;7322;50.872;4.386;2023-07-13T11:43:43;26.60;99.90
14473;DHT22;7322;50.872;4.386;2023-07-13T11:46:15;26.60;99.90
14473;DHT22;7322;50.872;4.386;2023-07-13T11:48:45;26.60;99.90
14473;DHT22;7322;50.872;4.386;2023-07-13T11:51:19;26.60;99.90
14473;DHT22;7322;50.872;4.386;2023-07-13T11:53:49;26.60;99.90
14473;DHT22;7322;50.872;4.386;2023-07-13T11:56:17;26.40;99.90
14473;DHT22;7322;50.872;4.386;2023-07-13T11:58:44;26.40;99.90
14473;DHT22;7322;50.872;4.386;2023-07-13T12:01:18;26.40;99.90
14473;DHT22;7322;50.872;4.386;2023-07-13T12:03:45;26.40;99.90
14473;DHT22;7322;50.872;4.386;2023-07-13T12:06:25;26.30;99.90
14473;DHT22;7322;50.872;4.386;2023-07-13T12:08:56;26.30;99.90
14473;DHT22;7322;50.872;4.386;2023-07-13T12:11:23;26.30;99.90
14473;DHT22;7322;50.872;4.386;2023-07-13T12:13:50;26.30;99.90
14473;DHT22;7322;50.872;4.386;2023-07-13T12:16:24;26.30;99.90
14473;DHT22;7322;50.872;4.386;2023-07-13T12:18:53;26.40;99.90
14473;DHT22;7322;50.872;4.386;2023-07-13T12:21:26;26.40;99.90
14473;DHT22;7322;50.872;4.386;2023-07-13T12:23:55;26.50;99.90
14473;DHT22;7322;50.872;4.386;2023-07-13T12:26:22;26.50;99.90
14473;DHT22;7322;50.872;4.386;2023-07-13T12:28:52;26.50;99.90
14473;DHT22;7322;50.872;4.386;2023-07-13T12:31:33;26.60;99.90
14473;DHT22;7322;50.872;4.386;2023-07-13T12:34:02;26.60;99.90
14473;DHT22;7322;50.872;4.386;2023-07-13T12:36:33;26.40;99.90
14473;DHT22;7322;50.872;4.386;2023-07-13T12:39:04;26.20;99.90
14473;DHT22;7322;50.872;4.386;2023-07-13T12:41:32;26.20;99.90
14473;DHT22;7322;50.872;4.386;2023-07-13T12:44:00;26.20;99.90
14473;DHT22;7322;50.872;4.386;2023-07-13T12:46:27;26.30;99.90
14473;DHT22;7322;50.872;4.386;2023-07-13T12:48:57;26.30;99.90
14473;DHT22;7322;50.872;4.386;2023-07-13T12:51:26;26.40;99.90
14473;DHT22;7322;50.872;4.386;2023-07-13T12:53:57;26.40;99.90
14473;DHT22;7322;50.872;4.386;2023-07-13T12:56:27;26.40;99.90
14473;DHT22;7322;50.872;4.386;2023-07-13T12:58:58;26.40;99.90
14473;DHT22;7322;50.872;4.386;2023-07-13T13:01:28;26.50;99.90
14473;DHT22;7322;50.872;4.386;2023-07-13T13:03:55;26.50;99.90
14473;DHT22;7322;50.872;4.386;2023-07-13T13:06:25;26.50;99.90
14473;DHT22;7322;50.872;4.386;2023-07-13T13:08:55;26.60;99.90
14473;DHT22;7322;50.872;4.386;2023-07-13T13:11:24;26.60;99.90
14473;DHT22;7322;50.872;4.386;2023-07-13T13:13:52;26.60;99.90
14473;DHT22;7322;50.872;4.386;2023-07-13T13:16:22;26.70;99.90
14473;DHT22;7322;50.872;4.386;2023-07-13T13:18:50;26.70;99.90
14473;DHT22;7322;50.872;4.386;2023-07-13T13:21:18;26.70;99.90
14473;DHT22;7322;50.872;4.386;2023-07-13T13:23:46;26.70;99.90
14473;DHT22;7322;50.872;4.386;2023-07-13T13:26:15;26.80;99.90
14473;DHT22;7322;50.872;4.386;2023-07-13T13:28:43;26.80;99.90
14473;DHT22;7322;50.872;4.386;2023-07-13T13:31:11;26.80;99.90
14473;DHT22;7322;50.872;4.386;2023-07-13T13:33:39;26.80;99.90
14473;DHT22;7322;50.872;4.386;2023-07-13T13:36:14;26.80;99.90
14473;DHT22;7322;50.872;4.386;2023-07-13T13:38:42;26.90;99.90
14473;DHT22;7322;50.872;4.386;2023-07-13T13:41:10;26.90;99.90
14473;DHT22;7322;50.872;4.386;2023-07-13T13:43:40;26.90;99.90
14473;DHT22;7322;50.872;4.386;2023-07-13T13:46:15;27.00;99.90
14473;DHT22;7322;50.872;4.386;2023-07-13T13:48:43;27.00;99.90
14473;DHT22;7322;50.872;4.386;2023-07-13T13:51:16;27.00;99.90
14473;DHT22;7322;50.872;4.386;2023-07-13T13:53:43;27.00;99.90
14473;DHT22;7322;50.872;4.386;2023-07-13T13:56:11;27.00;99.90
14473;DHT22;7322;50.872;4.386;2023-07-13T13:58:40;27.10;99.90
14473;DHT22;7322;50.872;4.386;2023-07-13T14:01:12;27.10;99.90
14473;DHT22;7322;50.872;4.386;2023-07-13T14:03:40;27.10;99.90
14473;DHT22;7322;50.872;4.386;2023-07-13T14:06:10;27.10;99.90
14473;DHT22;7322;50.872;4.386;2023-07-13T14:08:38;27.10;99.90
14473;DHT22;7322;50.872;4.386;2023-07-13T14:11:05;27.10;99.90
14473;DHT22;7322;50.872;4.386;2023-07-13T14:13:36;27.10;99.90
14473;DHT22;7322;50.872;4.386;2023-07-13T14:16:11;27.10;99.90
14473;DHT22;7322;50.872;4.386;2023-07-13T14:18:38;27.10;99.90
14473;DHT22;7322;50.872;4.386;2023-07-13T14:21:11;27.10;99.90
14473;DHT22;7322;50.872;4.386;2023-07-13T14:23:39;27.20;99.90
14473;DHT22;7322;50.872;4.386;2023-07-13T14:26:10;27.20;99.90
14473;DHT22;7322;50.872;4.386;2023-07-13T14:28:41;27.20;99.90
14473;DHT22;7322;50.872;4.386;2023-07-13T14:31:11;27.20;99.90
14473;DHT22;7322;50.872;4.386;2023-07-13T14:33:38;27.30;99.90
14473;DHT22;7322;50.872;4.386;2023-07-13T14:36:20;27.30;99.90
14473;DHT22;7322;50.872;4.386;2023-07-13T14:38:48;27.30;99.90
14473;DHT22;7322;50.872;4.386;2023-07-13T14:41:27;27.30;99.90
14473;DHT22;7322;50.872;4.386;2023-07-13T14:43:54;27.30;99.90
14473;DHT22;7322;50.872;4.386;2023-07-13T14:46:27;27.30;99.90
14473;DHT22;7322;50.872;4.386;2023-07-13T14:49:00;27.30;99.90
14473;DHT22;7322;50.872;4.386;2023-07-13T14:51:28;27.30;99.90
14473;DHT22;7322;50.872;4.386;2023-07-13T14:53:55;27.30;99.90
14473;DHT22;7322;50.872;4.386;2023-07-13T14:56:22;27.30;99.90
14473;DHT22;7322;50.872;4.386;2023-07-13T14:58:49;27.30;99.90
14473;DHT22;7322;50.872;4.386;2023-07-13T15:01:16;27.40;99.90
14473;DHT22;7322;50.872;4.386;2023-07-13T15:03:47;27.40;99.90
14473;DHT22;7322;50.872;4.386;2023-07-13T15:06:15;27.40;99.90
14473;DHT22;7322;50.872;4.386;2023-07-13T15:08:42;27.40;99.90
14473;DHT22;7322;50.872;4.386;2023-07-13T15:11:10;27.40;99.90
14473;DHT22;7322;50.872;4.386;2023-07-13T15:13:38;27.40;99.90
14473;DHT22;7322;50.872;4.386;2023-07-13T15:16:15;27.40;99.90
14473;DHT22;7322;50.872;4.386;2023-07-13T15:18:44;27.50;99.90
14473;DHT22;7322;50.872;4.386;2023-07-13T15:21:14;27.50;99.90
14473;DHT22;7322;50.872;4.386;2023-07-13T15:23:44;27.50;99.90
14473;DHT22;7322;50.872;4.386;2023-07-13T15:26:12;27.50;99.90
14473;DHT22;7322;50.872;4.386;2023-07-13T15:28:41;27.50;99.90
14473;DHT22;7322;50.872;4.386;2023-07-13T15:31:21;27.40;99.90
14473;DHT22;7322;50.872;4.386;2023-07-13T15:33:50;27.50;99.90
14473;DHT22;7322;50.872;4.386;2023-07-13T15:36:18;27.40;99.90
14473;DHT22;7322;50.872;4.386;2023-07-13T15:38:45;27.30;99.90
14473;DHT22;7322;50.872;4.386;2023-07-13T15:41:17;27.30;99.90
14473;DHT22;7322;50.872;4.386;2023-07-13T15:43:46;27.30;99.90
14473;DHT22;7322;50.872;4.386;2023-07-13T15:46:13;27.30;99.90
14473;DHT22;7322;50.872;4.386;2023-07-13T15:48:41;27.30;99.90
14473;DHT22;7322;50.872;4.386;2023-07-13T15:51:14;27.30;99.90
14473;DHT22;7322;50.872;4.386;2023-07-13T15:53:42;27.40;99.90
14473;DHT22;7322;50.872;4.386;2023-07-13T15:56:19;27.30;99.90
14473;DHT22;7322;50.872;4.386;2023-07-13T15:58:47;27.30;99.90
14473;DHT22;7322;50.872;4.386;2023-07-13T16:01:15;27.30;99.90
14473;DHT22;7322;50.872;4.386;2023-07-13T16:03:42;27.40;99.90
14473;DHT22;7322;50.872;4.386;2023-07-13T16:06:28;27.30;99.90
14473;DHT22;7322;50.872;4.386;2023-07-13T16:08:56;27.40;99.90